Time;durP1;ratioP1;P1;durP2;ratioP2;P2;SDS_P1;SDS_P2;PMS_P1;PMS_P2;Temp;Humidity;BMP_temperature;BMP_pressure;BME280_temperature;BME280_humidity;BME280_pressure;Samples;Min_cycle;Max_cycle;Signal;HPM_P1;HPM_P2
2024/01/05 00:01:33;;;;;;;8.18;4.90;;;3.70;99.90;;;;;;5132325;27;20027;-80
2024/01/05 00:04:00;;;;;;;11.25;5.82;;;3.70;99.90;;;;;;5111509;28;20036;-80
2024/01/05 00:06:26;;;;;;;11.90;5.75;;;3.70;99.90;;;;;;5113037;28;20051;-80
2024/01/05 00:08:52;;;;;;;10.75;6.38;;;3.70;99.90;;;;;;5149440;27;20040;-80
2024/01/05 00:11:18;;;;;;;11.20;5.15;;;3.60;99.90;;;;;;5114920;28;20043;-80
2024/01/05 00:13:44;;;;;;;9.75;5.38;;;3.60;99.90;;;;;;5096329;28;20043;-80
2024/01/05 00:16:17;;;;;;;12.23;6.00;;;3.60;99.90;;;;;;5113237;28;20508;-80
2024/01/05 00:18:43;;;;;;;10.77;5.65;;;3.60;99.90;;;;;;5112314;28;20069;-80
2024/01/05 00:21:17;;;;;;;10.50;5.78;;;3.60;99.90;;;;;;5169043;27;20560;-80
2024/01/05 00:23:43;;;;;;;11.73;6.70;;;3.60;99.90;;;;;;5098541;28;20036;-80
2024/01/05 00:26:08;;;;;;;10.95;5.15;;;3.50;99.90;;;;;;5128872;27;20042;-80
2024/01/05 00:28:34;;;;;;;12.68;6.97;;;3.50;99.90;;;;;;5095159;28;20092;-80
2024/01/05 00:31:00;;;;;;;12.40;5.90;;;3.50;99.90;;;;;;5126923;27;20552;-80
2024/01/05 00:33:26;;;;;;;12.38;6.10;;;3.60;99.90;;;;;;5097746;28;20122;-80
2024/01/05 00:35:51;;;;;;;9.65;4.85;;;3.60;99.90;;;;;;5112997;27;20476;-80
2024/01/05 00:38:17;;;;;;;12.18;6.28;;;3.70;99.90;;;;;;5109892;28;20039;-80
2024/01/05 00:40:43;;;;;;;11.57;5.03;;;3.80;99.90;;;;;;5113684;28;20028;-80
2024/01/05 00:43:08;;;;;;;11.10;6.43;;;3.70;99.90;;;;;;5114258;28;20044;-80
2024/01/05 00:45:34;;;;;;;9.82;5.85;;;3.60;99.90;;;;;;5096511;28;20450;-80
2024/01/05 00:47:59;;;;;;;13.15;7.30;;;3.60;99.90;;;;;;5130537;27;20032;-80
2024/01/05 00:50:25;;;;;;;11.02;5.30;;;3.50;99.90;;;;;;5130077;27;20088;-80
2024/01/05 00:52:51;;;;;;;15.73;8.45;;;3.60;99.90;;;;;;5113428;28;20038;-79
2024/01/05 00:55:16;;;;;;;10.73;6.53;;;3.50;99.90;;;;;;5112548;28;20092;-80
2024/01/05 00:57:42;;;;;;;10.43;6.25;;;3.60;99.90;;;;;;5147633;27;20081;-79
2024/01/05 01:00:09;;;;;;;14.27;6.95;;;3.60;99.90;;;;;;5095544;28;20043;-80
2024/01/05 01:02:37;;;;;;;12.07;5.50;;;3.60;99.90;;;;;;5111909;28;20039;-80
2024/01/05 01:05:03;;;;;;;15.00;7.20;;;3.60;99.90;;;;;;5096590;28;20028;-80
2024/01/05 01:07:29;;;;;;;13.43;7.07;;;3.50;99.90;;;;;;5147631;27;20056;-80
2024/01/05 01:09:55;;;;;;;15.80;7.55;;;3.60;99.90;;;;;;5142447;27;20501;-79
2024/01/05 01:12:21;;;;;;;12.20;7.38;;;3.60;99.90;;;;;;5097052;28;20503;-80
2024/01/05 01:14:46;;;;;;;13.20;6.80;;;3.60;99.90;;;;;;5113061;28;20137;-80
2024/01/05 01:17:12;;;;;;;13.35;7.90;;;3.60;99.90;;;;;;5096535;28;20036;-80
2024/01/05 01:19:38;;;;;;;12.48;6.65;;;3.60;99.90;;;;;;5110733;28;20047;-80
2024/01/05 01:22:03;;;;;;;14.00;7.28;;;3.60;99.90;;;;;;5111551;28;20035;-80
2024/01/05 01:24:29;;;;;;;15.95;6.85;;;3.60;99.90;;;;;;5111207;28;20036;-80
2024/01/05 01:26:54;;;;;;;14.60;7.60;;;3.60;99.90;;;;;;5096514;28;20036;-79
2024/01/05 01:29:20;;;;;;;10.68;5.13;;;3.60;99.90;;;;;;5095039;28;20058;-80
2024/01/05 01:31:46;;;;;;;12.10;6.32;;;3.60;99.90;;;;;;5144909;27;20043;-80
2024/01/05 01:34:11;;;;;;;13.00;7.35;;;3.70;99.90;;;;;;5128754;27;20043;-80
2024/01/05 01:36:37;;;;;;;11.77;7.15;;;3.60;99.90;;;;;;5113106;28;20046;-80
2024/01/05 01:39:04;;;;;;;16.25;7.45;;;3.60;99.90;;;;;;5112108;28;20035;-80
2024/01/05 01:41:30;;;;;;;13.43;7.10;;;3.50;99.90;;;;;;5110963;28;20046;-80
2024/01/05 01:43:56;;;;;;;13.20;6.82;;;3.50;99.90;;;;;;5095109;28;20116;-79
2024/01/05 01:46:23;;;;;;;12.48;6.32;;;3.40;99.90;;;;;;5112993;28;20086;-79
2024/01/05 01:48:50;;;;;;;13.25;6.82;;;3.30;99.90;;;;;;5112999;28;20130;-78
2024/01/05 01:51:15;;;;;;;11.20;6.18;;;3.40;99.90;;;;;;5135517;27;20036;-79
2024/01/05 01:53:42;;;;;;;14.27;6.93;;;3.30;99.90;;;;;;5111872;28;20092;-79
2024/01/05 01:56:10;;;;;;;17.00;7.38;;;3.40;99.90;;;;;;5113062;28;20039;-79
2024/01/05 01:58:38;;;;;;;13.52;6.65;;;3.30;99.90;;;;;;5111784;28;20054;-79
2024/01/05 02:01:05;;;;;;;10.38;5.63;;;3.20;99.90;;;;;;5089385;28;20663;-80
2024/01/05 02:03:32;;;;;;;11.00;5.03;;;3.30;99.90;;;;;;5097639;27;20028;-80
2024/01/05 02:05:59;;;;;;;13.05;6.40;;;3.40;99.90;;;;;;5146667;27;20084;-79
2024/01/05 02:08:25;;;;;;;13.65;6.32;;;3.30;99.90;;;;;;5147157;27;20039;-80
2024/01/05 02:10:50;;;;;;;14.02;7.32;;;3.30;99.90;;;;;;5094448;28;20119;-79
2024/01/05 02:13:16;;;;;;;12.65;6.65;;;3.30;99.90;;;;;;5145204;27;20043;-78
2024/01/05 02:15:42;;;;;;;13.38;6.13;;;3.30;99.90;;;;;;5111403;28;20446;-78
2024/01/05 02:18:14;;;;;;;15.63;7.13;;;3.20;99.90;;;;;;5146952;27;20039;-78
2024/01/05 02:20:44;;;;;;;11.90;6.28;;;3.30;99.90;;;;;;5111823;28;20560;-80
2024/01/05 02:23:25;;;;;;;14.95;6.65;;;3.30;99.90;;;;;;5096303;28;20032;-80
2024/01/05 02:25:51;;;;;;;11.95;5.72;;;3.30;99.90;;;;;;5094370;28;20047;-79
2024/01/05 02:28:18;;;;;;;12.70;6.35;;;3.30;99.90;;;;;;5129658;27;20040;-79
2024/01/05 02:30:44;;;;;;;14.50;6.57;;;3.30;99.90;;;;;;5127262;27;20031;-79
2024/01/05 02:33:09;;;;;;;15.68;6.45;;;3.20;99.90;;;;;;5111288;28;20042;-79
2024/01/05 02:35:35;;;;;;;13.15;6.47;;;3.30;99.90;;;;;;5145456;27;20036;-79
2024/01/05 02:38:01;;;;;;;12.88;6.50;;;3.30;99.90;;;;;;5112216;28;20047;-80
2024/01/05 02:40:27;;;;;;;13.23;6.35;;;3.20;99.90;;;;;;5095371;28;20059;-79
2024/01/05 02:42:52;;;;;;;16.70;7.30;;;3.30;99.90;;;;;;5094374;28;20035;-80
2024/01/05 02:45:20;;;;;;;15.52;6.95;;;3.20;99.90;;;;;;5125467;28;20039;-80
2024/01/05 02:47:52;;;;;;;14.15;7.03;;;3.20;99.90;;;;;;5112182;28;20495;-79
2024/01/05 02:50:19;;;;;;;17.85;7.63;;;3.20;99.90;;;;;;5146548;27;20488;-79
2024/01/05 02:52:45;;;;;;;13.30;7.20;;;3.20;99.90;;;;;;5145545;27;20060;-80
2024/01/05 02:55:12;;;;;;;17.50;8.02;;;3.20;99.90;;;;;;5146051;27;20043;-79
2024/01/05 02:57:38;;;;;;;16.25;8.23;;;3.10;99.90;;;;;;5116004;28;20089;-78
2024/01/05 03:00:05;;;;;;;13.02;6.97;;;3.10;99.90;;;;;;5115703;27;20047;-80
2024/01/05 03:02:31;;;;;;;13.30;6.60;;;3.20;99.90;;;;;;5131563;27;20035;-79
2024/01/05 03:04:57;;;;;;;13.88;6.30;;;3.30;99.90;;;;;;5149472;27;20502;-80
2024/01/05 03:07:23;;;;;;;14.82;6.85;;;3.20;99.90;;;;;;5133367;27;20122;-79
2024/01/05 03:09:49;;;;;;;14.60;6.82;;;3.20;99.90;;;;;;5116174;28;20130;-80
2024/01/05 03:12:16;;;;;;;15.10;7.15;;;3.30;99.90;;;;;;5113378;27;20495;-79
2024/01/05 03:14:41;;;;;;;16.85;7.85;;;3.30;99.90;;;;;;5115454;27;20036;-79
2024/01/05 03:17:07;;;;;;;15.07;7.18;;;3.20;99.90;;;;;;5114452;27;20034;-79
2024/01/05 03:19:33;;;;;;;14.40;7.13;;;3.40;99.90;;;;;;5098989;28;20048;-79
2024/01/05 03:21:59;;;;;;;15.55;7.88;;;3.40;99.90;;;;;;5092204;28;20036;-78
2024/01/05 03:24:24;;;;;;;17.80;7.40;;;3.30;99.90;;;;;;5106220;28;20044;-79
2024/01/05 03:26:50;;;;;;;14.65;6.40;;;3.30;99.90;;;;;;5115706;28;20114;-79
2024/01/05 03:29:15;;;;;;;15.02;7.15;;;3.30;99.90;;;;;;5114467;27;20437;-79
2024/01/05 03:31:45;;;;;;;14.27;7.82;;;3.30;99.90;;;;;;5132859;27;20027;-79
2024/01/05 03:34:14;;;;;;;10.48;5.38;;;3.40;99.90;;;;;;5112534;27;20031;-78
2024/01/05 03:36:40;;;;;;;15.45;7.85;;;3.40;99.90;;;;;;5098417;28;20067;-77
2024/01/05 03:39:07;;;;;;;15.50;7.05;;;3.40;99.90;;;;;;5082966;28;20044;-78
2024/01/05 03:41:33;;;;;;;14.85;6.35;;;3.30;99.90;;;;;;5098785;28;20100;-78
2024/01/05 03:43:59;;;;;;;14.90;6.65;;;3.30;99.90;;;;;;5097233;28;20043;-77
2024/01/05 03:46:25;;;;;;;15.15;8.57;;;3.30;99.90;;;;;;5115638;28;20043;-76
2024/01/05 03:48:51;;;;;;;14.23;7.00;;;3.30;99.90;;;;;;5147690;27;20410;-77
2024/01/05 03:51:16;;;;;;;14.18;7.07;;;3.30;99.90;;;;;;5131802;27;20042;-76
2024/01/05 03:53:42;;;;;;;15.43;7.55;;;3.30;99.90;;;;;;5097653;28;20046;-77
2024/01/05 03:56:10;;;;;;;13.13;7.05;;;3.30;99.90;;;;;;5096643;27;20039;-77
2024/01/05 03:58:36;;;;;;;12.52;6.75;;;3.30;99.90;;;;;;5132042;27;20097;-77
2024/01/05 04:01:02;;;;;;;12.93;7.43;;;3.30;99.90;;;;;;5114323;28;20372;-78
2024/01/05 04:03:28;;;;;;;12.75;6.15;;;3.30;99.90;;;;;;5149944;27;20043;-78
2024/01/05 04:05:54;;;;;;;12.70;7.57;;;3.40;99.90;;;;;;5147869;27;20039;-78
2024/01/05 04:08:20;;;;;;;13.25;6.35;;;3.30;99.90;;;;;;5114911;28;20407;-79
2024/01/05 04:10:45;;;;;;;12.20;6.28;;;3.30;99.90;;;;;;5098297;28;20068;-79
2024/01/05 04:13:11;;;;;;;11.52;5.97;;;3.30;99.90;;;;;;5131241;27;20085;-79
2024/01/05 04:15:37;;;;;;;13.07;6.90;;;3.40;99.90;;;;;;5148009;27;20089;-78
2024/01/05 04:18:03;;;;;;;15.35;8.25;;;3.30;99.90;;;;;;5097688;28;20040;-77
2024/01/05 04:20:29;;;;;;;11.13;5.18;;;3.30;99.90;;;;;;5132099;27;20039;-78
2024/01/05 04:22:55;;;;;;;11.85;6.38;;;3.30;99.90;;;;;;5097021;28;20548;-79
2024/01/05 04:25:21;;;;;;;12.23;5.35;;;3.40;99.90;;;;;;5130118;27;20523;-78
2024/01/05 04:27:47;;;;;;;13.30;7.13;;;3.40;99.90;;;;;;5147662;27;20050;-79
2024/01/05 04:30:12;;;;;;;11.27;5.90;;;3.30;99.90;;;;;;5108733;27;20062;-79
2024/01/05 04:32:38;;;;;;;10.98;5.60;;;3.40;99.90;;;;;;5115810;27;20667;-79
2024/01/05 04:35:04;;;;;;;9.57;5.70;;;3.40;99.90;;;;;;5096665;28;20042;-80
2024/01/05 04:37:30;;;;;;;14.35;8.10;;;3.50;99.90;;;;;;5096810;28;20047;-79
2024/01/05 04:39:55;;;;;;;11.18;5.57;;;3.40;99.90;;;;;;5096143;28;20369;-80
2024/01/05 04:42:22;;;;;;;11.38;5.78;;;3.40;99.90;;;;;;5096980;28;20372;-80
2024/01/05 04:44:49;;;;;;;11.45;6.28;;;3.50;99.90;;;;;;5113282;28;20047;-80
2024/01/05 04:47:15;;;;;;;11.35;5.78;;;3.40;99.90;;;;;;5148854;27;20395;-79
2024/01/05 04:49:41;;;;;;;10.73;5.80;;;3.50;99.90;;;;;;5096377;28;20495;-80
2024/01/05 04:52:07;;;;;;;10.32;5.53;;;3.50;99.90;;;;;;5097613;28;20128;-78
2024/01/05 04:54:32;;;;;;;12.73;6.72;;;3.50;99.90;;;;;;5147803;27;20039;-79
2024/01/05 04:56:58;;;;;;;11.48;6.80;;;3.50;99.90;;;;;;5131132;27;20043;-80
2024/01/05 04:59:24;;;;;;;10.35;5.68;;;3.60;99.90;;;;;;5146813;27;20055;-80
2024/01/05 05:01:50;;;;;;;12.07;6.57;;;3.50;99.90;;;;;;5126259;27;20040;-79
2024/01/05 05:04:17;;;;;;;9.00;5.05;;;3.50;99.90;;;;;;5112161;28;20040;-79
2024/01/05 05:06:43;;;;;;;12.77;6.43;;;3.50;99.90;;;;;;5096311;28;20058;-79
2024/01/05 05:09:10;;;;;;;13.25;7.03;;;3.60;99.90;;;;;;5111275;28;20123;-79
2024/01/05 05:11:37;;;;;;;11.93;6.25;;;3.50;99.90;;;;;;5111556;27;20042;-80
2024/01/05 05:14:03;;;;;;;10.90;5.82;;;3.50;99.90;;;;;;5111610;28;20038;-80
2024/01/05 05:16:28;;;;;;;12.05;6.57;;;3.50;99.90;;;;;;5096213;28;20122;-80
2024/01/05 05:18:54;;;;;;;12.27;6.85;;;3.50;99.90;;;;;;5112238;28;20480;-79
2024/01/05 05:21:19;;;;;;;10.95;6.30;;;3.40;99.90;;;;;;5112836;28;20032;-78
2024/01/05 05:23:45;;;;;;;10.77;5.90;;;3.50;99.90;;;;;;5112572;28;20031;-79
2024/01/05 05:26:11;;;;;;;11.55;6.80;;;3.60;99.90;;;;;;5126558;27;20031;-78
2024/01/05 05:28:36;;;;;;;10.00;5.72;;;3.50;99.90;;;;;;5128709;27;20100;-79
2024/01/05 05:31:02;;;;;;;11.65;6.50;;;3.50;99.90;;;;;;5111749;28;20043;-79
2024/01/05 05:33:28;;;;;;;11.13;5.97;;;3.50;99.90;;;;;;5096085;28;20391;-79
2024/01/05 05:35:54;;;;;;;11.27;5.70;;;3.60;99.90;;;;;;5146370;27;20118;-79
2024/01/05 05:38:19;;;;;;;12.63;6.53;;;3.60;99.90;;;;;;5094549;28;20063;-79
2024/01/05 05:40:45;;;;;;;9.23;5.07;;;3.60;99.90;;;;;;5111514;27;20530;-79
2024/01/05 05:43:11;;;;;;;12.60;6.65;;;3.70;99.90;;;;;;5104568;28;20502;-78
2024/01/05 05:45:37;;;;;;;11.95;6.38;;;3.70;99.90;;;;;;5111771;28;20031;-79
2024/01/05 05:48:04;;;;;;;11.93;6.35;;;3.70;99.90;;;;;;5094806;28;20062;-79
2024/01/05 05:50:29;;;;;;;12.55;6.47;;;3.70;99.90;;;;;;5112752;28;20403;-78
2024/01/05 05:52:55;;;;;;;11.98;7.00;;;3.60;99.90;;;;;;5095491;28;20039;-79
2024/01/05 05:55:21;;;;;;;12.25;6.25;;;3.60;99.90;;;;;;5095339;28;20066;-78
2024/01/05 05:57:46;;;;;;;12.63;6.55;;;3.70;99.90;;;;;;5109770;28;20124;-78
2024/01/05 06:00:13;;;;;;;13.00;7.30;;;3.70;99.90;;;;;;5146601;27;20491;-78
2024/01/05 06:02:38;;;;;;;12.50;7.40;;;3.60;99.90;;;;;;5112179;28;21522;-78
2024/01/05 06:05:05;;;;;;;13.55;7.00;;;3.60;99.90;;;;;;5146266;27;20038;-77
2024/01/05 06:07:31;;;;;;;11.75;6.50;;;3.60;99.90;;;;;;5093146;28;20089;-78
2024/01/05 06:09:58;;;;;;;11.13;6.80;;;3.60;99.90;;;;;;5112036;28;20040;-78
2024/01/05 06:12:24;;;;;;;12.40;6.07;;;3.60;99.90;;;;;;5147085;27;20500;-79
2024/01/05 06:14:50;;;;;;;11.65;7.10;;;3.60;99.90;;;;;;5112121;28;20088;-78
2024/01/05 06:17:16;;;;;;;10.82;6.10;;;3.70;99.90;;;;;;5094659;28;20031;-79
2024/01/05 06:19:42;;;;;;;13.57;7.18;;;3.70;99.90;;;;;;5110777;28;20122;-79
2024/01/05 06:22:08;;;;;;;12.90;7.15;;;3.70;99.90;;;;;;5112594;28;20071;-79
2024/01/05 06:24:34;;;;;;;9.43;5.85;;;3.70;99.90;;;;;;5095133;28;20074;-79
2024/01/05 06:26:59;;;;;;;10.68;5.53;;;3.70;99.90;;;;;;5145471;27;20043;-79
2024/01/05 06:29:25;;;;;;;11.77;6.75;;;3.80;99.90;;;;;;5109107;28;20044;-78
2024/01/05 06:31:51;;;;;;;12.77;7.38;;;3.90;99.90;;;;;;5112234;28;20122;-79
2024/01/05 06:34:17;;;;;;;11.80;6.63;;;3.80;99.90;;;;;;5128859;27;20046;-79
2024/01/05 06:36:43;;;;;;;12.13;7.57;;;3.80;99.90;;;;;;5145831;27;20032;-79
2024/01/05 06:39:08;;;;;;;11.35;6.25;;;3.80;99.90;;;;;;5127813;28;20040;-79
2024/01/05 06:41:34;;;;;;;11.75;6.35;;;3.80;99.90;;;;;;5095357;28;20404;-78
2024/01/05 06:44:00;;;;;;;13.18;6.93;;;3.80;99.90;;;;;;5111317;28;20032;-78
2024/01/05 06:46:28;;;;;;;11.73;6.43;;;4.00;99.90;;;;;;5142247;27;20032;-79
2024/01/05 06:48:55;;;;;;;11.98;6.30;;;3.90;99.90;;;;;;5110813;28;20046;-78
2024/01/05 06:51:23;;;;;;;10.82;6.15;;;3.90;99.90;;;;;;5095316;28;20039;-77
2024/01/05 06:53:49;;;;;;;12.48;7.35;;;3.80;99.90;;;;;;5111139;28;20256;-77
2024/01/05 06:56:14;;;;;;;13.82;8.15;;;3.90;99.90;;;;;;5110221;28;20547;-78
2024/01/05 06:58:40;;;;;;;12.32;7.45;;;3.80;99.90;;;;;;5109477;28;20051;-78
2024/01/05 07:01:06;;;;;;;11.95;6.97;;;3.80;99.90;;;;;;5095155;28;20036;-78
2024/01/05 07:03:32;;;;;;;11.55;6.22;;;3.90;99.90;;;;;;5112437;28;20035;-79
2024/01/05 07:05:58;;;;;;;11.73;6.50;;;3.90;99.90;;;;;;5093291;28;20035;-79
2024/01/05 07:08:24;;;;;;;14.95;7.20;;;3.90;99.90;;;;;;5110682;28;20036;-79
2024/01/05 07:10:49;;;;;;;13.93;8.10;;;3.90;99.90;;;;;;5112241;28;20514;-78
2024/01/05 07:13:15;;;;;;;14.55;7.68;;;3.90;99.90;;;;;;5092297;28;20102;-77
2024/01/05 07:15:41;;;;;;;13.35;8.18;;;3.90;99.90;;;;;;5143150;27;20036;-77
2024/01/05 07:18:07;;;;;;;13.25;8.00;;;3.90;99.90;;;;;;5118171;28;20118;-77
2024/01/05 07:20:33;;;;;;;10.77;6.80;;;3.90;99.90;;;;;;5090901;28;20154;-77
2024/01/05 07:22:59;;;;;;;15.43;8.43;;;3.90;99.90;;;;;;5111899;28;20404;-78
2024/01/05 07:25:25;;;;;;;13.68;6.50;;;3.90;99.90;;;;;;5095341;28;20031;-79
2024/01/05 07:27:50;;;;;;;14.63;9.45;;;3.90;99.90;;;;;;5115588;28;20484;-79
2024/01/05 07:30:16;;;;;;;14.05;7.60;;;3.90;99.90;;;;;;5126416;28;20483;-79
2024/01/05 07:32:42;;;;;;;15.55;9.05;;;3.90;99.90;;;;;;5115541;28;20035;-79
2024/01/05 07:35:07;;;;;;;15.40;9.23;;;4.00;99.90;;;;;;5132384;28;20077;-79
2024/01/05 07:37:33;;;;;;;16.63;8.88;;;3.90;99.90;;;;;;5123009;28;20036;-79
2024/01/05 07:39:58;;;;;;;18.75;10.00;;;3.90;99.90;;;;;;5111677;28;20079;-79
2024/01/05 07:42:27;;;;;;;15.85;9.77;;;3.90;99.90;;;;;;5098205;27;20039;-79
2024/01/05 07:44:54;;;;;;;16.98;10.77;;;3.90;99.90;;;;;;5102166;28;20114;-79
2024/01/05 07:47:19;;;;;;;18.55;10.20;;;4.10;99.90;;;;;;5106822;27;20483;-80
2024/01/05 07:49:45;;;;;;;18.33;10.75;;;3.90;99.90;;;;;;5118767;27;20041;-79
2024/01/05 07:52:11;;;;;;;17.30;10.35;;;3.90;99.90;;;;;;5118766;27;20122;-79
2024/01/05 07:54:39;;;;;;;17.17;10.07;;;3.90;99.90;;;;;;5153159;27;20043;-80
2024/01/05 07:57:05;;;;;;;14.18;8.93;;;4.00;99.90;;;;;;5118862;27;20070;-80
2024/01/05 07:59:30;;;;;;;13.80;7.50;;;4.10;99.90;;;;;;5108941;28;20492;-79
2024/01/05 08:01:56;;;;;;;19.73;11.35;;;4.20;99.90;;;;;;5098164;28;20032;-79
2024/01/05 08:04:22;;;;;;;17.50;10.02;;;4.10;99.90;;;;;;5118349;27;20044;-79
2024/01/05 08:06:48;;;;;;;20.00;10.63;;;4.20;99.90;;;;;;5094723;28;20036;-79
2024/01/05 08:09:13;;;;;;;19.08;10.82;;;4.20;99.90;;;;;;5098159;28;20035;-79
2024/01/05 08:11:39;;;;;;;18.10;9.90;;;4.10;99.90;;;;;;5107429;27;20049;-79
2024/01/05 08:14:07;;;;;;;19.65;11.50;;;4.10;99.90;;;;;;5117482;27;20032;-78
2024/01/05 08:16:33;;;;;;;21.58;12.82;;;4.20;99.90;;;;;;5148764;27;20403;-79
2024/01/05 08:18:59;;;;;;;20.40;11.65;;;4.20;99.90;;;;;;5130927;27;20052;-79
2024/01/05 08:21:25;;;;;;;16.70;10.80;;;4.20;99.90;;;;;;5095922;28;20043;-79
2024/01/05 08:23:51;;;;;;;19.38;11.27;;;4.20;99.90;;;;;;5102190;28;20378;-79
2024/01/05 08:26:18;;;;;;;17.48;10.48;;;4.20;99.90;;;;;;5139171;27;20042;-79
2024/01/05 08:28:43;;;;;;;17.73;10.73;;;4.30;99.90;;;;;;5123045;27;20039;-79
2024/01/05 08:31:09;;;;;;;15.43;9.65;;;4.30;99.90;;;;;;5113848;28;20134;-79
2024/01/05 08:33:35;;;;;;;19.27;11.07;;;4.30;99.90;;;;;;5114608;28;20035;-79
2024/01/05 08:36:01;;;;;;;19.48;11.27;;;4.30;99.90;;;;;;5114565;28;20039;-80
2024/01/05 08:38:27;;;;;;;19.40;11.40;;;4.30;99.90;;;;;;5112483;28;20040;-78
2024/01/05 08:40:52;;;;;;;20.80;12.32;;;4.30;99.90;;;;;;5097296;28;20043;-78
2024/01/05 08:43:19;;;;;;;18.08;11.65;;;4.30;99.90;;;;;;5097423;28;20035;-77
2024/01/05 08:45:45;;;;;;;18.17;11.52;;;4.30;99.90;;;;;;5131704;27;20054;-77
2024/01/05 08:48:11;;;;;;;20.08;11.20;;;4.30;99.90;;;;;;5128079;27;20510;-77
2024/01/05 08:50:37;;;;;;;19.48;11.85;;;4.30;99.90;;;;;;5128548;27;20040;-76
2024/01/05 08:53:03;;;;;;;17.20;9.93;;;4.40;99.90;;;;;;5129940;27;20488;-77
2024/01/05 08:55:29;;;;;;;20.60;11.73;;;4.40;99.90;;;;;;5142148;27;20085;-77
2024/01/05 08:57:55;;;;;;;18.77;10.75;;;4.40;99.90;;;;;;5144934;27;20052;-77
2024/01/05 09:00:21;;;;;;;18.92;11.07;;;4.50;99.90;;;;;;5097039;28;20042;-78
2024/01/05 09:02:47;;;;;;;21.92;11.60;;;4.50;99.90;;;;;;5111029;27;20023;-77
2024/01/05 09:05:13;;;;;;;19.10;11.85;;;4.60;99.90;;;;;;5100655;27;20084;-77
2024/01/05 09:07:38;;;;;;;19.67;12.35;;;4.50;99.90;;;;;;5095549;27;20043;-76
2024/01/05 09:10:04;;;;;;;17.73;10.77;;;4.60;99.90;;;;;;5139922;27;20532;-76
2024/01/05 09:12:30;;;;;;;20.90;11.82;;;4.60;99.90;;;;;;5100123;27;20127;-76
2024/01/05 09:14:55;;;;;;;21.23;12.00;;;4.60;99.90;;;;;;5143711;27;20491;-76
2024/01/05 09:17:21;;;;;;;19.40;11.93;;;4.70;99.90;;;;;;5145608;27;20040;-76
2024/01/05 09:19:48;;;;;;;20.60;11.40;;;4.70;99.90;;;;;;5107910;27;20036;-76
2024/01/05 09:22:13;;;;;;;17.55;10.75;;;4.80;99.90;;;;;;5109866;27;20126;-76
2024/01/05 09:24:39;;;;;;;17.60;11.15;;;4.80;99.90;;;;;;5092660;27;20032;-77
2024/01/05 09:27:05;;;;;;;16.15;10.43;;;4.70;99.90;;;;;;5097235;27;20032;-77
2024/01/05 09:29:31;;;;;;;17.52;10.07;;;4.70;99.90;;;;;;5111173;27;20484;-78
2024/01/05 09:31:57;;;;;;;20.25;11.57;;;4.80;99.90;;;;;;5120985;27;20043;-78
2024/01/05 09:34:23;;;;;;;19.77;11.23;;;4.90;99.90;;;;;;5096021;27;20050;-77
2024/01/05 09:36:51;;;;;;;19.17;11.27;;;4.90;99.90;;;;;;5074270;28;20090;-77
2024/01/05 09:39:16;;;;;;;19.05;11.95;;;4.80;99.90;;;;;;5072060;28;20050;-77
2024/01/05 09:41:45;;;;;;;19.35;11.50;;;4.80;99.90;;;;;;5099377;27;20043;-77
2024/01/05 09:44:11;;;;;;;17.63;11.05;;;4.80;99.90;;;;;;5103559;27;20067;-76
2024/01/05 09:46:41;;;;;;;20.35;12.18;;;4.80;99.90;;;;;;5120951;27;20044;-76
2024/01/05 09:49:08;;;;;;;18.05;11.57;;;4.90;99.90;;;;;;5095190;27;20048;-77
2024/01/05 09:51:34;;;;;;;19.95;11.85;;;4.90;99.90;;;;;;5076744;27;20046;-77
2024/01/05 09:54:00;;;;;;;18.85;11.07;;;4.90;99.90;;;;;;5108834;27;20055;-77
2024/01/05 09:56:27;;;;;;;19.05;9.88;;;5.00;99.90;;;;;;5119026;27;20168;-77
2024/01/05 09:58:54;;;;;;;20.20;11.90;;;5.00;99.90;;;;;;5098119;27;20062;-77
2024/01/05 10:01:32;;;;;;;18.45;10.85;;;5.20;99.90;;;;;;5087463;27;20108;-77
2024/01/05 10:04:01;;;;;;;18.33;10.00;;;5.10;99.90;;;;;;5100355;27;20376;-78
2024/01/05 10:06:28;;;;;;;17.65;9.63;;;5.20;99.90;;;;;;5101596;27;20039;-78
2024/01/05 10:08:55;;;;;;;15.68;10.18;;;5.30;99.90;;;;;;5099267;28;20044;-78
2024/01/05 10:11:35;;;;;;;16.33;10.57;;;5.40;99.90;;;;;;5121370;27;20043;-77
2024/01/05 10:14:08;;;;;;;15.85;9.93;;;5.40;99.90;;;;;;5133097;27;20438;-77
2024/01/05 10:16:39;;;;;;;15.90;9.55;;;5.40;99.90;;;;;;5101859;27;21993;-77
2024/01/05 10:19:15;;;;;;;17.52;10.30;;;5.40;99.90;;;;;;5077279;28;20048;-77
2024/01/05 10:21:43;;;;;;;16.15;9.15;;;5.50;99.90;;;;;;5095514;27;20139;-77
2024/01/05 10:24:25;;;;;;;14.98;9.43;;;5.50;99.90;;;;;;5128672;27;20074;-78
2024/01/05 10:27:08;;;;;;;14.75;8.75;;;5.40;99.90;;;;;;5107256;27;20035;-78
2024/01/05 10:29:36;;;;;;;15.48;9.43;;;5.40;99.90;;;;;;5111499;28;20039;-78
2024/01/05 10:32:24;;;;;;;18.25;11.48;;;5.40;99.90;;;;;;5118144;27;20073;-77
2024/01/05 10:34:50;;;;;;;14.48;9.18;;;5.30;99.90;;;;;;5099190;28;20040;-76
2024/01/05 10:37:17;;;;;;;16.50;9.68;;;5.30;99.90;;;;;;5110919;27;20040;-76
2024/01/05 10:39:47;;;;;;;17.15;9.25;;;5.30;99.90;;;;;;5108434;28;20053;-76
2024/01/05 10:42:24;;;;;;;16.02;9.25;;;5.30;99.90;;;;;;5117338;28;20036;-76
2024/01/05 10:44:52;;;;;;;12.65;8.18;;;5.30;99.90;;;;;;5102456;28;20035;-77
2024/01/05 10:47:20;;;;;;;15.45;9.02;;;5.30;99.90;;;;;;5127940;28;20400;-77
2024/01/05 10:49:50;;;;;;;14.07;8.90;;;5.30;99.90;;;;;;5142386;27;20043;-78
2024/01/05 10:52:24;;;;;;;13.63;8.68;;;5.30;99.90;;;;;;5108947;28;20071;-79
2024/01/05 10:54:52;;;;;;;16.73;10.20;;;5.20;99.90;;;;;;5144969;27;20039;-78
2024/01/05 10:57:19;;;;;;;16.20;9.15;;;5.30;99.90;;;;;;5104842;28;20480;-79
2024/01/05 10:59:49;;;;;;;15.80;9.90;;;5.20;99.90;;;;;;5099889;28;20125;-78
2024/01/05 11:02:22;;;;;;;14.18;8.43;;;5.20;99.90;;;;;;5128864;27;20044;-79
2024/01/05 11:04:59;;;;;;;14.98;9.45;;;5.30;99.90;;;;;;5146720;27;20169;-78
2024/01/05 11:07:29;;;;;;;16.25;10.02;;;5.30;99.90;;;;;;5094164;28;20054;-78
2024/01/05 11:09:57;;;;;;;14.13;9.05;;;5.20;99.90;;;;;;5094210;28;20460;-78
2024/01/05 11:12:51;;;;;;;15.05;9.77;;;5.20;99.90;;;;;;5129113;28;20064;-78
2024/01/05 11:15:44;;;;;;;16.48;9.88;;;5.20;99.90;;;;;;5124777;28;20047;-79
2024/01/05 11:18:50;;;;;;;19.13;11.05;;;5.20;99.90;;;;;;5139076;27;20051;-79
2024/01/05 11:21:22;;;;;;;14.60;8.98;;;5.20;99.90;;;;;;5096335;28;20032;-79
2024/01/05 11:23:49;;;;;;;18.17;10.32;;;5.30;99.90;;;;;;5146989;27;20046;-79
2024/01/05 11:26:34;;;;;;;16.75;10.27;;;5.30;99.90;;;;;;5098909;28;20046;-79
2024/01/05 11:29:00;;;;;;;17.90;9.63;;;5.40;99.90;;;;;;5136097;27;20107;-79
2024/01/05 11:31:45;;;;;;;16.92;10.00;;;5.40;99.90;;;;;;5094568;28;20115;-78
2024/01/05 11:34:30;;;;;;;17.42;10.48;;;5.40;99.90;;;;;;5092219;28;20526;-79
2024/01/05 11:36:56;;;;;;;17.10;9.90;;;5.40;99.90;;;;;;5114765;28;20097;-78
2024/01/05 11:39:40;;;;;;;16.48;10.25;;;5.40;99.90;;;;;;5130974;27;20626;-78
2024/01/05 11:42:07;;;;;;;17.23;10.48;;;5.40;99.90;;;;;;5092221;28;20121;-78
2024/01/05 11:44:34;;;;;;;16.65;10.20;;;5.50;99.90;;;;;;5084872;28;20037;-78
2024/01/05 11:47:01;;;;;;;15.75;9.60;;;5.40;99.90;;;;;;5086492;28;20040;-78
2024/01/05 11:49:41;;;;;;;17.70;10.10;;;5.50;99.90;;;;;;5111977;28;20031;-78
2024/01/05 11:52:07;;;;;;;17.30;10.23;;;5.50;99.90;;;;;;5112294;28;20038;-78
2024/01/05 11:54:34;;;;;;;15.38;9.10;;;5.50;99.90;;;;;;5097454;28;20078;-78
2024/01/05 11:57:00;;;;;;;15.10;8.57;;;5.60;99.90;;;;;;5147153;27;20077;-78
2024/01/05 11:59:26;;;;;;;16.65;9.18;;;5.60;99.90;;;;;;5131031;27;20044;-78
2024/01/05 12:01:53;;;;;;;16.15;8.88;;;5.60;99.90;;;;;;5143417;27;20480;-78
2024/01/05 12:04:19;;;;;;;14.82;8.63;;;5.60;99.90;;;;;;5096994;28;20035;-77
2024/01/05 12:06:54;;;;;;;15.25;9.07;;;5.60;99.90;;;;;;5148629;27;20028;-77
2024/01/05 12:09:20;;;;;;;14.18;8.82;;;5.60;99.90;;;;;;5096110;28;20043;-78
2024/01/05 12:11:46;;;;;;;15.93;9.68;;;5.60;99.90;;;;;;5146931;27;20039;-77
2024/01/05 12:14:25;;;;;;;15.55;9.35;;;5.60;99.90;;;;;;5095341;28;20047;-77
2024/01/05 12:16:51;;;;;;;15.88;9.10;;;5.60;99.90;;;;;;5146157;27;21772;-78
2024/01/05 12:19:21;;;;;;;20.88;11.30;;;5.60;99.90;;;;;;5082854;28;20039;-77
2024/01/05 12:21:53;;;;;;;15.10;9.27;;;5.60;99.90;;;;;;5111282;28;20035;-77
2024/01/05 12:24:18;;;;;;;19.25;11.65;;;5.60;99.90;;;;;;5096171;28;20560;-76
2024/01/05 12:26:44;;;;;;;18.52;10.90;;;5.60;99.90;;;;;;5111777;28;20039;-76
2024/01/05 12:29:11;;;;;;;16.20;10.13;;;5.60;99.90;;;;;;5112153;28;20088;-77
2024/01/05 12:31:38;;;;;;;18.67;9.93;;;5.50;99.90;;;;;;5095854;28;20040;-77
2024/01/05 12:34:05;;;;;;;15.90;9.88;;;5.40;99.90;;;;;;5109023;28;20043;-77
2024/01/05 12:36:31;;;;;;;17.00;10.30;;;5.50;99.90;;;;;;5145283;27;20493;-77
2024/01/05 12:39:08;;;;;;;17.13;10.98;;;5.50;99.90;;;;;;5112873;28;20138;-77
2024/01/05 12:41:34;;;;;;;18.27;10.30;;;5.50;99.90;;;;;;5111625;28;20499;-77
2024/01/05 12:43:59;;;;;;;17.75;10.38;;;5.50;99.90;;;;;;5144478;27;20032;-76
2024/01/05 12:46:25;;;;;;;17.52;10.10;;;5.50;99.90;;;;;;5112630;28;20080;-77